Brookings, SD

4:08 AM CDT on May 23, 2017 (GMT -0500)
Brookings Municipal

Weather History for KBKX - November, 2012

Change the Weather History Date:

Sunday, November 18, 2012

  Actual Average Record
Temperature  
Mean Temperature 46 °F -  
Max Temperature 57 °F 37 °F 62 °F (1999)
Min Temperature 35 °F 20 °F 6 °F (1996)
Degree Days  
Heating Degree Days 19    
Moisture  
Dew Point 34 °F    
Average Humidity 65    
Maximum Humidity 81    
Minimum Humidity 44    
Precipitation  
Precipitation 0.00 in - - ()
Sea Level Pressure  
Sea Level Pressure 30.00 in    
Wind  
Wind Speed 12 mph (SSE)    
Max Wind Speed 17 mph    
Max Gust Speed 26 mph    
Visibility 10 miles    
Events      
Averages and records for this station are not official NWS values.
T = Trace of Precipitation, MM = Missing Value Source: NWS Daily Summary

Daily Weather History Graph

Daily Weather History Graph

Search for Another Location

Airport or City:

Trip Planner

Search our weather history database for the weather conditions in past years. The results will help you decide how hot, cold, wet, or windy it might be!

Date:

Astronomy

Nov. 18, 2012 Rise Set
Actual Time 7:27 AM CST 4:57 PM CST
Civil Twilight 6:56 AM CST 5:28 PM CST
Nautical Twilight 6:20 AM CST 6:04 PM CST
Astronomical Twilight 5:46 AM CST 6:38 PM CST
Moon 11:52 AM CST (11/18) 10:21 PM CST (11/18)
Length of Visible Light 10h 32m
Length of Day
9h 29m
Waxing Crescent, 30% of the Moon is Illuminated
Nov 18
Waxing Crescent
Nov 20
First Quarter
Nov 28
Full
Dec 6
Last Quarter
Dec 13
New

Hourly Weather History & Observations

Time (CST) Temp. Windchill Dew Point Humidity Pressure Visibility Wind Dir Wind Speed Gust Speed Precip Events Conditions
12:15 AM 42.8 °F 36.2 °F 33.8 °F 70% 30.04 in 10.0 mi SSE 12.7 mph - N/A   Clear
12:35 AM 41.0 °F 33.9 °F 33.8 °F 76% 30.04 in 10.0 mi SSE 12.7 mph - N/A   Clear
12:55 AM 41.0 °F 34.3 °F 33.8 °F 76% 30.03 in 10.0 mi SSE 11.5 mph - N/A   Clear
1:15 AM 39.2 °F 32.0 °F 33.8 °F 81% 30.03 in 10.0 mi SSE 11.5 mph - N/A   Clear
1:55 AM 39.2 °F 32.5 °F 33.8 °F 81% 30.03 in 10.0 mi South 10.4 mph - N/A   Clear
2:15 AM 39.2 °F 32.0 °F 33.8 °F 81% 30.04 in 10.0 mi South 11.5 mph - N/A   Clear
2:35 AM 39.2 °F 32.5 °F 33.8 °F 81% 30.04 in 10.0 mi SSE 10.4 mph - N/A   Clear
2:55 AM 39.2 °F 32.0 °F 33.8 °F 81% 30.04 in 10.0 mi South 11.5 mph - N/A   Clear
3:15 AM 39.2 °F 32.5 °F 33.8 °F 81% 30.04 in 10.0 mi South 10.4 mph - N/A   Clear
3:35 AM 37.4 °F 30.3 °F 32.0 °F 81% 30.03 in 10.0 mi SSE 10.4 mph - N/A   Clear
3:55 AM 37.4 °F 29.3 °F 32.0 °F 81% 30.04 in 10.0 mi South 12.7 mph - N/A   Clear
4:15 AM 37.4 °F 30.3 °F 32.0 °F 81% 30.03 in 10.0 mi South 10.4 mph - N/A   Clear
4:35 AM 37.4 °F 29.3 °F 32.0 °F 81% 30.03 in 10.0 mi South 12.7 mph - N/A   Clear
4:55 AM 37.4 °F 28.9 °F 32.0 °F 81% 30.03 in 10.0 mi South 13.8 mph - N/A   Clear
5:15 AM 37.4 °F 28.2 °F 32.0 °F 81% 30.02 in 10.0 mi South 16.1 mph 20.7 mph N/A   Clear
5:35 AM 37.4 °F 28.5 °F 32.0 °F 81% 30.02 in 10.0 mi South 15.0 mph - N/A   Clear
5:55 AM 35.6 °F 27.1 °F 30.2 °F 81% 30.02 in 10.0 mi South 12.7 mph - N/A   Clear
6:15 AM 35.6 °F 27.5 °F 30.2 °F 81% 30.02 in 10.0 mi South 11.5 mph - N/A   Clear
6:35 AM 35.6 °F 27.1 °F 30.2 °F 81% 30.02 in 10.0 mi South 12.7 mph - N/A   Clear
6:55 AM 35.6 °F 27.1 °F 30.2 °F 81% 30.01 in 10.0 mi South 12.7 mph - N/A   Clear
7:15 AM 35.6 °F 27.1 °F 30.2 °F 81% 30.01 in 10.0 mi South 12.7 mph - N/A   Clear
7:35 AM 35.6 °F 26.6 °F 30.2 °F 81% 30.01 in 10.0 mi South 13.8 mph - N/A   Clear
7:55 AM 35.6 °F 27.5 °F 30.2 °F 81% 30.02 in 10.0 mi South 11.5 mph - N/A   Clear
8:15 AM 35.6 °F 27.5 °F 30.2 °F 81% 30.02 in 10.0 mi South 11.5 mph - N/A   Clear
8:35 AM 37.4 °F 29.8 °F 30.2 °F 75% 30.03 in 10.0 mi South 11.5 mph - N/A   Clear
8:55 AM 39.2 °F 32.0 °F 30.2 °F 70% 30.03 in 10.0 mi South 11.5 mph - N/A   Clear
9:15 AM 39.2 °F 32.5 °F 32.0 °F 75% 30.03 in 10.0 mi South 10.4 mph - N/A   Clear
9:35 AM 42.8 °F 38.0 °F 32.0 °F 66% 30.03 in 10.0 mi South 8.1 mph - N/A   Clear
9:55 AM 44.6 °F 39.2 °F 33.8 °F 66% 30.03 in 10.0 mi South 10.4 mph - N/A   Clear
10:15 AM 44.6 °F 39.2 °F 33.8 °F 66% 30.02 in 10.0 mi SSE 10.4 mph - N/A   Clear
10:35 AM 46.4 °F 41.5 °F 33.8 °F 62% 30.03 in 10.0 mi South 10.4 mph - N/A   Clear
10:55 AM 46.4 °F 40.7 °F 33.8 °F 62% 30.03 in 10.0 mi SSE 12.7 mph - N/A   Clear
11:15 AM 48.2 °F - 33.8 °F 58% 30.02 in 10.0 mi SSE 9.2 mph - N/A   Clear
11:35 AM 51.8 °F - 35.6 °F 54% 30.02 in 10.0 mi SSE 11.5 mph 17.3 mph N/A   Partly Cloudy
11:55 AM 51.8 °F - 35.6 °F 54% 30.01 in 10.0 mi SSE 13.8 mph 19.6 mph N/A   Clear
12:15 PM 53.6 °F - 35.6 °F 51% 30.00 in 10.0 mi South 12.7 mph - N/A   Clear
12:35 PM 57.2 °F - 35.6 °F 44% 29.99 in 10.0 mi SSE 12.7 mph - N/A   Clear
12:55 PM 57.2 °F - 35.6 °F 44% 29.98 in 10.0 mi South 12.7 mph - N/A   Clear
1:15 PM 57.2 °F - 37.4 °F 48% 29.97 in 10.0 mi South 12.7 mph - N/A   Clear
1:35 PM 57.2 °F - 35.6 °F 44% 29.97 in 10.0 mi SSE 15.0 mph 21.9 mph N/A   Clear
1:55 PM 55.4 °F - 35.6 °F 47% 29.97 in 10.0 mi SSE 13.8 mph - N/A   Clear
2:15 PM 55.4 °F - 35.6 °F 47% 29.97 in 10.0 mi SSE 12.7 mph - N/A   Clear
2:35 PM 53.6 °F - 35.6 °F 51% 29.96 in 10.0 mi SSE 11.5 mph - N/A   Clear
2:55 PM 55.4 °F - 35.6 °F 47% 29.96 in 10.0 mi SSE 11.5 mph - N/A   Clear
3:15 PM 55.4 °F - 37.4 °F 51% 29.96 in 10.0 mi South 17.3 mph 24.2 mph N/A   Clear
3:35 PM 53.6 °F - 35.6 °F 51% 29.96 in 10.0 mi SSE 11.5 mph - N/A   Clear
3:55 PM 55.4 °F - 37.4 °F 51% 29.96 in 10.0 mi South 12.7 mph - N/A   Clear
4:15 PM 55.4 °F - 35.6 °F 47% 29.97 in 10.0 mi South 12.7 mph - N/A   Clear
4:35 PM 53.6 °F - 35.6 °F 51% 29.96 in 10.0 mi SSE 12.7 mph 17.3 mph N/A   Clear
4:55 PM 51.8 °F - 35.6 °F 54% 29.96 in 10.0 mi SSE 10.4 mph - N/A   Clear
5:15 PM 51.8 °F - 35.6 °F 54% 29.96 in 10.0 mi SSE 11.5 mph - N/A   Clear
5:35 PM 50.0 °F - 35.6 °F 58% 29.97 in 10.0 mi SSE 9.2 mph - N/A   Clear
5:55 PM 50.0 °F - 35.6 °F 58% 29.97 in 10.0 mi SE 9.2 mph - N/A   Clear
6:15 PM 48.2 °F - 35.6 °F 62% 29.98 in 10.0 mi SSE 10.4 mph - N/A   Clear
6:35 PM 48.2 °F - 35.6 °F 62% 29.98 in 10.0 mi SE 12.7 mph - N/A   Clear
6:55 PM 48.2 °F - 35.6 °F 62% 29.98 in 10.0 mi SSE 15.0 mph - N/A   Clear
7:15 PM 48.2 °F - 33.8 °F 58% 29.98 in 10.0 mi SSE 16.1 mph 19.6 mph N/A   Clear
7:35 PM 48.2 °F - 33.8 °F 58% 29.98 in 10.0 mi SSE 16.1 mph 21.9 mph N/A   Clear
7:55 PM 48.2 °F - 33.8 °F 58% 29.98 in 10.0 mi SSE 17.3 mph - N/A   Clear
8:15 PM 48.2 °F - 33.8 °F 58% 29.98 in 10.0 mi SSE 16.1 mph 20.7 mph N/A   Clear
8:35 PM 48.2 °F - 33.8 °F 58% 29.98 in 10.0 mi SSE 17.3 mph 26.5 mph N/A   Clear
8:55 PM 48.2 °F - 33.8 °F 58% 29.99 in 10.0 mi SSE 13.8 mph 19.6 mph N/A   Clear
9:15 PM 48.2 °F - 33.8 °F 58% 29.98 in 10.0 mi SSE 15.0 mph 20.7 mph N/A   Clear
9:35 PM 46.4 °F 39.8 °F 33.8 °F 62% 29.98 in 10.0 mi SSE 16.1 mph 23.0 mph N/A   Clear
9:55 PM 46.4 °F 40.1 °F 33.8 °F 62% 29.98 in 10.0 mi SSE 15.0 mph 19.6 mph N/A   Clear
10:35 PM 44.6 °F 38.4 °F 33.8 °F 66% 29.98 in 10.0 mi SSE 12.7 mph - N/A   Clear
11:15 PM 42.8 °F 36.6 °F 33.8 °F 70% 29.98 in 10.0 mi SSE 11.5 mph - N/A   Clear
11:35 PM 44.6 °F 38.1 °F 33.8 °F 66% 29.97 in 10.0 mi SSE 13.8 mph 19.6 mph N/A   Clear
11:55 PM 42.8 °F 35.4 °F 33.8 °F 70% 29.97 in 10.0 mi SSE 15.0 mph 18.4 mph N/A   Clear